createdAt,value
2023-05-04T00:05:51.187Z,999
2023-05-04T00:11:51.164Z,999
2023-05-04T00:17:51.226Z,999
2023-05-04T00:23:51.166Z,999
2023-05-04T00:29:51.175Z,999
2023-05-04T00:35:51.173Z,999
2023-05-04T00:41:51.176Z,999
2023-05-04T00:47:51.202Z,999
2023-05-04T00:53:51.161Z,999
2023-05-04T00:59:51.188Z,999
2023-05-04T01:11:51.163Z,999
2023-05-04T01:17:51.265Z,999
2023-05-04T01:23:51.186Z,999
2023-05-04T01:29:51.192Z,999
2023-05-04T01:35:51.165Z,999
2023-05-04T01:42:01.461Z,999
2023-05-04T01:47:51.229Z,999
2023-05-04T01:53:51.174Z,999
2023-05-04T01:59:51.180Z,999
2023-05-04T02:11:51.237Z,999
2023-05-04T02:17:51.182Z,999
2023-05-04T02:23:51.185Z,999
2023-05-04T02:29:51.186Z,999
2023-05-04T02:35:51.193Z,999
2023-05-04T02:41:51.184Z,999
2023-05-04T02:47:51.252Z,999
2023-05-04T02:53:51.181Z,999
2023-05-04T02:59:51.191Z,999
2023-05-04T03:05:51.179Z,999
2023-05-04T03:11:51.202Z,999
2023-05-04T03:17:51.225Z,999
2023-05-04T03:23:51.207Z,999
2023-05-04T03:29:51.172Z,999
2023-05-04T03:35:51.172Z,999
2023-05-04T03:41:51.173Z,998
2023-05-04T03:47:51.240Z,998
2023-05-04T03:53:51.382Z,998
2023-05-04T03:59:51.190Z,998
2023-05-04T04:05:51.164Z,998
2023-05-04T04:11:51.182Z,998
2023-05-04T04:17:51.222Z,998
2023-05-04T04:23:51.172Z,998
2023-05-04T04:29:51.186Z,998
2023-05-04T04:35:51.194Z,998
2023-05-04T04:41:51.184Z,998
2023-05-04T04:47:51.229Z,998
2023-05-04T04:53:51.256Z,999
2023-05-04T04:59:51.159Z,998
2023-05-04T05:05:51.150Z,998
2023-05-04T05:11:51.191Z,998
2023-05-04T05:17:51.239Z,998
2023-05-04T05:23:51.160Z,998
2023-05-04T05:29:51.168Z,999
2023-05-04T05:35:51.204Z,999
2023-05-04T05:41:51.161Z,999
2023-05-04T05:47:51.185Z,999
2023-05-04T05:53:51.180Z,998
2023-05-04T05:59:51.171Z,998
2023-05-04T06:11:52.927Z,998
2023-05-04T06:17:51.206Z,998
2023-05-04T06:23:51.204Z,998
2023-05-04T06:29:51.153Z,998
2023-05-04T06:41:51.175Z,998
2023-05-04T06:47:51.189Z,998
2023-05-04T06:53:51.191Z,998
2023-05-04T06:59:51.181Z,998
2023-05-04T07:05:51.230Z,998
2023-05-04T07:11:51.164Z,998
2023-05-04T07:17:51.219Z,998
2023-05-04T07:23:51.202Z,998
2023-05-04T07:29:51.248Z,998
2023-05-04T07:35:51.161Z,998
2023-05-04T07:41:51.167Z,998
2023-05-04T07:47:52.752Z,998
2023-05-04T07:53:51.158Z,998
2023-05-04T07:59:51.185Z,998
2023-05-04T08:05:51.188Z,998
2023-05-04T08:11:51.171Z,998
2023-05-04T08:17:51.198Z,997
2023-05-04T08:23:51.174Z,997
2023-05-04T08:29:51.191Z,997
2023-05-04T08:35:51.200Z,997
2023-05-04T08:41:51.209Z,997
2023-05-04T08:47:51.236Z,997
2023-05-04T08:53:51.214Z,997
2023-05-04T08:59:51.191Z,997
2023-05-04T09:11:51.236Z,997
2023-05-04T09:23:51.437Z,997
2023-05-04T09:29:51.216Z,997
2023-05-04T09:35:51.208Z,997
2023-05-04T09:41:51.216Z,997
2023-05-04T09:47:51.245Z,997
2023-05-04T09:53:51.226Z,997
2023-05-04T09:59:51.229Z,997
2023-05-04T10:17:51.273Z,997
2023-05-04T10:23:51.228Z,996
2023-05-04T10:29:51.221Z,996
2023-05-04T10:35:51.240Z,996
2023-05-04T10:41:51.212Z,996
2023-05-04T10:47:51.275Z,996
2023-05-04T10:53:51.223Z,996
2023-05-04T10:59:51.226Z,996
2023-05-04T11:05:51.252Z,996
2023-05-04T11:11:51.240Z,996
2023-05-04T11:17:51.269Z,996
2023-05-04T11:23:51.227Z,996
2023-05-04T11:29:51.238Z,996
2023-05-04T11:35:51.249Z,995
2023-05-04T11:41:51.251Z,995
2023-05-04T11:47:51.325Z,995
2023-05-04T11:53:51.253Z,995
2023-05-04T11:59:51.248Z,995
2023-05-04T12:05:51.258Z,995
2023-05-04T12:11:51.250Z,995
2023-05-04T12:17:51.360Z,995
2023-05-04T12:23:51.250Z,995
2023-05-04T12:29:51.250Z,995
2023-05-04T12:41:51.267Z,995
2023-05-04T12:47:51.264Z,995
2023-05-04T12:53:51.261Z,995
2023-05-04T12:59:51.270Z,994
2023-05-04T13:11:51.264Z,994
2023-05-04T13:17:51.295Z,994
2023-05-04T13:23:51.259Z,994
2023-05-04T13:29:51.339Z,994
2023-05-04T13:35:51.264Z,994
2023-05-04T13:41:51.254Z,994
2023-05-04T13:47:51.289Z,994
2023-05-04T13:53:51.268Z,994
2023-05-04T14:00:05.107Z,994
2023-05-04T14:11:51.276Z,994
2023-05-04T14:17:51.303Z,993
2023-05-04T14:23:51.268Z,993
2023-05-04T14:29:51.282Z,993
2023-05-04T14:41:51.266Z,993
2023-05-04T14:47:51.498Z,993
2023-05-04T14:53:51.293Z,993
2023-05-04T14:59:51.271Z,993
2023-05-04T15:05:51.289Z,993
2023-05-04T15:11:51.270Z,993
2023-05-04T15:17:51.314Z,993
2023-05-04T15:23:51.343Z,992
2023-05-04T15:29:51.335Z,992
2023-05-04T15:35:51.283Z,992
2023-05-04T15:41:51.292Z,992
2023-05-04T15:47:51.305Z,992
2023-05-04T15:53:51.286Z,992
2023-05-04T15:59:51.291Z,992
2023-05-04T16:05:51.306Z,992
2023-05-04T16:11:51.284Z,992
2023-05-04T16:17:51.345Z,992
2023-05-04T16:23:51.301Z,992
2023-05-04T16:29:51.382Z,992
2023-05-04T16:35:51.309Z,992
2023-05-04T16:41:51.310Z,992
2023-05-04T16:47:51.305Z,992
2023-05-04T16:53:51.301Z,992
2023-05-04T16:59:51.315Z,992
2023-05-04T17:05:51.317Z,992
2023-05-04T17:11:51.360Z,992
2023-05-04T17:17:51.363Z,992
2023-05-04T17:23:51.301Z,992
2023-05-04T17:29:51.321Z,992
2023-05-04T17:35:51.353Z,992
2023-05-04T17:41:51.337Z,992
2023-05-04T17:47:51.424Z,992
2023-05-04T17:53:51.343Z,992
2023-05-04T17:59:51.319Z,992
2023-05-04T18:05:51.350Z,992
2023-05-04T18:11:51.326Z,992
2023-05-04T18:17:51.347Z,992
2023-05-04T18:23:51.325Z,992
2023-05-04T18:29:51.332Z,992
2023-05-04T18:35:51.408Z,992
2023-05-04T18:41:51.348Z,993
2023-05-04T18:47:51.346Z,992
2023-05-04T18:53:51.360Z,993
2023-05-04T18:59:51.335Z,993
2023-05-04T19:11:51.350Z,993
2023-05-04T19:17:51.351Z,993
2023-05-04T19:23:51.334Z,993
2023-05-04T19:29:51.367Z,993
2023-05-04T19:41:51.336Z,993
2023-05-04T19:47:51.454Z,993
2023-05-04T19:53:51.342Z,993
2023-05-04T19:59:51.340Z,993
2023-05-04T20:05:51.334Z,993
2023-05-04T20:11:51.366Z,993
2023-05-04T20:17:51.360Z,993
2023-05-04T20:23:51.335Z,993
2023-05-04T20:29:51.357Z,993
2023-05-04T20:35:51.347Z,993
2023-05-04T20:41:51.361Z,993
2023-05-04T20:47:51.392Z,993
2023-05-04T20:53:51.342Z,993
2023-05-04T20:59:51.369Z,993
2023-05-04T21:05:51.364Z,993
2023-05-04T21:11:51.356Z,993
2023-05-04T21:17:51.455Z,992
2023-05-04T21:23:51.390Z,992
2023-05-04T21:29:51.356Z,992
2023-05-04T21:35:51.385Z,992
2023-05-04T21:41:51.413Z,992
2023-05-04T21:47:51.404Z,992
2023-05-04T21:53:51.403Z,992
2023-05-04T21:59:51.369Z,992
2023-05-04T22:05:51.367Z,992
2023-05-04T22:11:51.367Z,992
2023-05-04T22:17:51.388Z,992
2023-05-04T22:23:51.375Z,992
2023-05-04T22:29:51.406Z,992
2023-05-04T22:35:51.368Z,992
2023-05-04T22:41:51.382Z,992
2023-05-04T22:47:51.414Z,992
2023-05-04T22:53:51.388Z,992
2023-05-04T22:59:51.406Z,992
2023-05-04T23:05:51.367Z,992
2023-05-04T23:11:51.372Z,992
2023-05-04T23:17:51.419Z,992
2023-05-04T23:23:51.374Z,992
2023-05-04T23:29:51.401Z,992
2023-05-04T23:35:51.381Z,992
2023-05-04T23:41:51.382Z,992
2023-05-04T23:47:51.451Z,992
2023-05-04T23:53:51.393Z,992
2023-05-04T23:59:51.423Z,992
